Archival Weather

Phoenix Goodyear

Goodyear, Arizona (KGYR)

Report from: Wednesday, December 6, 2023 8:47 PM MST
Current time: Wednesday, April 24, 2024 1:01 PM MST

Current weather – Weather history – Daily summaries
Weather forecast

Temperature17.0°C (62.6°F)
Dew point3.0°C (37.4°F)
Winds 4 kts (2.1 m/s, 4.6 mph) West (280°)
Visibility10 mi. (16.1 km)
Clouds Few clouds 20,000 ft. (6,096 m)
Altimeter30.01 in.Hg (1016 mB)
Relative humidity39 %
Density altitude249 ft. (76 m)
Remarks Last observation of the day
Flight conditions Visual Meteorological Conditions
Raw dataKGYR 070347Z 28004KT 10SM FEW200 17/03 A3001 RMK LAST
An error has occurred. This application may no longer respond until reloaded. Reload 🗙